Terminal Aerodrome Forecast
Issued by NWS Charleston, WV

Current Version | Previous Version | Graphics & Text | Print | Product List | Glossary On
Versions: 1 2 3 4 5 6 7 8 9 10 11 12 13 14 15 16 17 18 19 20 21 22 23 24 25 26
000
FTUS41 KRLX 250900 AAA
TAFHTS
TAF AMD
KHTS 250902Z 2509/2606 19005KT 6SM BR BKN050
     FM260000 18004KT 6SM -RA OVC050
     FM260200 17005KT 3SM -RA OVC015
     FM260300 17005KT 2SM -RA BR OVC008=

USA.gov is the U.S. government's official web portal to all federal, state and local government web resources and services.